Stanley, Idaho
Current Conditions -  °F | °C
As of 12:55 AM on Monday 26 Jan 2015 (Local Time) from KLLJ Reporting Station
Clear Clear  
Wind Chill: 23°   Ceiling: Unl
Heat Index: 28°   Visibility: 10mi
Dew Point: 27°   Wind: 5mph
Humidity: 96%   Direction: 300°WNW
Pressure: 30.4"   Gusts: NA
Location:  44.21°N, 114.95°W
Report Text: KLLJ 260755Z AUTO 30004KT 10SM CLR M02/M03 A3040 RMK AO2 SLP306 T10221028
Loading
Personal Weather Stations






























Interactive Weather Map New forecast layout! Learn more

10-Day Weather Forecast

Advertisements
Track Severe Weather on mobile